createdAt,value
2022-11-09T00:01:07.483Z,22.40
2022-11-09T00:05:15.126Z,21.90
2022-11-09T00:09:22.664Z,22.40
2022-11-09T00:13:29.932Z,19.90
2022-11-09T00:17:37.365Z,22.10
2022-11-09T00:21:45.224Z,21.70
2022-11-09T00:25:52.858Z,22.90
2022-11-09T00:30:00.758Z,22.60
2022-11-09T00:34:08.579Z,23.70
2022-11-09T00:38:17.124Z,24.00
2022-11-09T00:42:25.270Z,22.40
2022-11-09T00:46:33.137Z,20.50
2022-11-09T00:50:41.530Z,24.00
2022-11-09T00:54:48.943Z,24.70
2022-11-09T00:58:59.746Z,24.60
2022-11-09T01:03:07.920Z,25.10
2022-11-09T01:07:15.607Z,25.20
2022-11-09T01:11:24.024Z,27.00
2022-11-09T01:15:32.136Z,22.00
2022-11-09T01:19:39.680Z,23.40
2022-11-09T01:23:47.310Z,22.60
2022-11-09T01:27:55.399Z,21.60
2022-11-09T01:32:03.198Z,20.60
2022-11-09T01:36:12.735Z,20.20
2022-11-09T01:40:20.621Z,20.40
2022-11-09T01:44:31.990Z,20.20
2022-11-09T01:48:43.237Z,21.70
2022-11-09T01:52:51.455Z,21.50
2022-11-09T01:57:01.197Z,19.80
2022-11-09T02:01:11.349Z,20.40
2022-11-09T02:05:21.212Z,19.90
2022-11-09T02:09:32.535Z,19.80
2022-11-09T02:13:43.276Z,21.00
2022-11-09T02:17:54.464Z,18.40
2022-11-09T02:22:02.570Z,20.70
2022-11-09T02:26:15.522Z,21.30
2022-11-09T02:30:25.395Z,20.70
2022-11-09T02:34:34.125Z,20.30
2022-11-09T02:38:41.895Z,21.50
2022-11-09T02:42:49.797Z,17.80
2022-11-09T02:46:57.711Z,21.70
2022-11-09T02:51:05.129Z,21.40
2022-11-09T02:55:13.578Z,22.30
2022-11-09T02:59:21.684Z,26.10
2022-11-09T03:03:29.712Z,22.40
2022-11-09T03:07:38.028Z,19.40
2022-11-09T03:11:45.992Z,20.10
2022-11-09T03:15:54.025Z,20.00
2022-11-09T03:20:02.240Z,21.60
2022-11-09T03:24:11.255Z,19.70
2022-11-09T03:28:19.292Z,24.80
2022-11-09T03:32:26.837Z,23.90
2022-11-09T03:36:34.374Z,20.80
2022-11-09T03:40:42.335Z,22.00
2022-11-09T03:44:49.857Z,21.30
2022-11-09T03:48:57.732Z,24.60
2022-11-09T03:53:05.619Z,26.70
2022-11-09T03:57:13.188Z,23.40
2022-11-09T04:01:20.420Z,25.80
2022-11-09T04:05:29.107Z,25.50
2022-11-09T04:09:37.910Z,30.00
2022-11-09T04:13:45.862Z,31.20
2022-11-09T04:18:01.186Z,32.10
2022-11-09T04:22:09.523Z,34.50
2022-11-09T04:26:17.699Z,30.80
2022-11-09T04:30:28.014Z,31.50
2022-11-09T04:34:37.227Z,32.40
2022-11-09T04:38:45.023Z,33.50
2022-11-09T04:42:52.978Z,34.60
2022-11-09T04:47:00.654Z,33.00
2022-11-09T04:51:10.772Z,35.00
2022-11-09T04:55:18.757Z,34.10
2022-11-09T04:59:26.381Z,39.10
2022-11-09T05:03:34.402Z,36.00
2022-11-09T05:07:42.799Z,35.80
2022-11-09T05:11:52.961Z,39.00
2022-11-09T05:16:05.186Z,36.10
2022-11-09T05:20:14.132Z,37.40
2022-11-09T05:24:21.869Z,35.80
2022-11-09T05:28:29.702Z,37.80
2022-11-09T05:32:41.499Z,41.40
2022-11-09T05:36:50.496Z,37.30
2022-11-09T05:40:58.009Z,37.60
2022-11-09T05:45:35.490Z,36.30
2022-11-09T05:49:34.725Z,35.10
2022-11-09T05:53:46.492Z,35.60
2022-11-09T05:57:54.862Z,38.20
2022-11-09T06:02:03.445Z,37.10
2022-11-09T06:06:12.653Z,35.70
2022-11-09T06:10:20.888Z,33.30
2022-11-09T06:14:29.031Z,33.90
2022-11-09T06:18:37.951Z,36.50
2022-11-09T06:22:45.975Z,35.50
2022-11-09T06:26:53.624Z,36.20
2022-11-09T06:31:02.639Z,36.30
2022-11-09T06:35:11.927Z,31.30
2022-11-09T06:39:20.220Z,33.40
2022-11-09T06:43:28.109Z,33.80
2022-11-09T06:47:36.973Z,35.00
2022-11-09T06:51:45.185Z,35.20
2022-11-09T06:55:52.922Z,33.50
2022-11-09T07:00:00.496Z,31.70
2022-11-09T07:04:09.298Z,29.20
2022-11-09T07:08:18.053Z,31.40
2022-11-09T07:12:25.867Z,30.50
2022-11-09T07:16:35.461Z,35.30
2022-11-09T07:20:43.310Z,33.60
2022-11-09T07:24:50.752Z,31.80
2022-11-09T07:28:58.513Z,33.20
2022-11-09T07:33:09.686Z,36.80
2022-11-09T07:37:18.720Z,38.20
2022-11-09T07:41:29.435Z,40.30
2022-11-09T07:45:42.076Z,36.80
2022-11-09T07:49:49.988Z,35.20
2022-11-09T07:53:58.063Z,32.40
2022-11-09T07:58:08.480Z,32.70
2022-11-09T08:02:16.567Z,29.40
2022-11-09T08:06:28.431Z,34.60
2022-11-09T08:10:37.488Z,30.20
2022-11-09T08:14:45.410Z,30.70
2022-11-09T08:18:54.454Z,30.40
2022-11-09T08:23:04.704Z,29.50
2022-11-09T08:27:13.514Z,32.10
2022-11-09T08:31:21.057Z,28.00
2022-11-09T08:35:29.739Z,30.00
2022-11-09T08:39:37.299Z,28.30
2022-11-09T08:43:44.879Z,27.90
2022-11-09T08:47:58.149Z,28.60
2022-11-09T08:52:06.143Z,37.30
2022-11-09T08:56:13.390Z,31.80
2022-11-09T09:00:22.079Z,32.10
2022-11-09T09:04:30.700Z,27.60
2022-11-09T09:08:41.282Z,28.40
2022-11-09T09:12:49.215Z,27.00
2022-11-09T09:16:57.100Z,29.40
2022-11-09T09:21:09.752Z,27.50
2022-11-09T09:25:18.976Z,27.60
2022-11-09T09:29:26.416Z,30.80
2022-11-09T09:33:34.409Z,25.30
2022-11-09T09:37:42.596Z,30.80
2022-11-09T09:41:56.531Z,27.80
2022-11-09T09:46:06.296Z,28.60
2022-11-09T09:50:19.126Z,30.80
2022-11-09T09:54:28.665Z,27.00
2022-11-09T09:58:38.253Z,36.40
2022-11-09T10:02:46.264Z,29.90
2022-11-09T10:07:02.936Z,31.70
2022-11-09T10:11:18.765Z,28.90
2022-11-09T10:15:33.234Z,29.40
2022-11-09T10:19:55.223Z,26.10
2022-11-09T10:24:20.758Z,27.40
2022-11-09T10:28:42.573Z,28.60
2022-11-09T10:33:00.902Z,26.90
2022-11-09T10:37:14.766Z,28.00
2022-11-09T10:41:28.103Z,22.80
2022-11-09T10:45:38.883Z,28.40
2022-11-09T10:49:46.297Z,24.20
2022-11-09T10:54:17.357Z,27.50
2022-11-09T10:58:30.333Z,25.40
2022-11-09T11:02:46.938Z,24.60
2022-11-09T11:06:56.263Z,26.70
2022-11-09T11:11:33.374Z,28.30
2022-11-09T11:15:43.854Z,25.60
2022-11-09T11:19:51.907Z,26.60
2022-11-09T11:24:20.768Z,27.00
2022-11-09T11:28:35.638Z,28.80
2022-11-09T11:32:49.862Z,26.40
2022-11-09T11:37:08.894Z,27.10
2022-11-09T11:41:38.519Z,26.50
2022-11-09T11:45:51.575Z,26.50
2022-11-09T11:50:17.473Z,27.00
2022-11-09T11:54:32.647Z,27.40
2022-11-09T11:58:50.004Z,27.50
2022-11-09T12:03:32.622Z,28.40
2022-11-09T12:07:46.536Z,29.40
2022-11-09T12:12:05.318Z,27.40
2022-11-09T12:16:17.471Z,27.90
2022-11-09T12:20:33.693Z,28.90
2022-11-09T12:24:48.271Z,28.10
2022-11-09T12:29:11.756Z,29.00
2022-11-09T12:33:33.484Z,28.40
2022-11-09T12:37:48.297Z,29.50
2022-11-09T12:41:57.712Z,27.70
2022-11-09T12:46:07.493Z,29.10
2022-11-09T12:50:18.587Z,31.10
2022-11-09T12:54:27.509Z,30.30
2022-11-09T12:58:37.259Z,30.60
2022-11-09T13:02:55.183Z,29.20
2022-11-09T13:07:43.509Z,29.70
2022-11-09T13:11:52.794Z,32.80
2022-11-09T13:16:15.157Z,33.80
2022-11-09T13:20:56.561Z,33.80
2022-11-09T13:25:07.546Z,32.90
2022-11-09T13:29:25.460Z,35.10
2022-11-09T13:33:34.260Z,36.30
2022-11-09T13:37:54.376Z,34.20
2022-11-09T13:42:02.158Z,39.40
2022-11-09T13:46:26.425Z,37.70
2022-11-09T13:50:36.919Z,32.60
2022-11-09T13:54:47.684Z,32.60
2022-11-09T13:58:57.696Z,34.10
2022-11-09T14:03:21.104Z,36.30
2022-11-09T14:07:31.023Z,31.30
2022-11-09T14:11:52.926Z,34.90
2022-11-09T14:16:07.263Z,34.70
2022-11-09T14:20:25.377Z,34.70
2022-11-09T14:24:37.395Z,34.90
2022-11-09T14:28:46.940Z,31.50
2022-11-09T14:32:57.125Z,30.90
2022-11-09T14:37:05.926Z,32.00
2022-11-09T14:41:24.592Z,30.30
2022-11-09T14:45:34.148Z,29.40
2022-11-09T14:49:42.757Z,41.10
2022-11-09T14:53:50.694Z,67.70
2022-11-09T14:57:59.585Z,81.00
2022-11-09T15:02:11.641Z,61.80
2022-11-09T15:06:21.867Z,40.50
2022-11-09T15:10:32.689Z,49.20
2022-11-09T15:14:40.515Z,47.90
2022-11-09T15:18:49.413Z,46.00
2022-11-09T15:22:59.003Z,127.50
2022-11-09T15:27:20.166Z,181.50
2022-11-09T15:31:28.842Z,103.40
2022-11-09T15:35:36.682Z,131.70
2022-11-09T15:39:44.364Z,96.40
2022-11-09T15:43:52.045Z,49.00
2022-11-09T15:47:59.917Z,45.00
2022-11-09T15:52:15.183Z,42.70
2022-11-09T15:56:24.760Z,51.00
2022-11-09T16:00:32.303Z,51.80
2022-11-09T16:04:40.472Z,52.10
2022-11-09T16:08:50.052Z,37.00
2022-11-09T16:12:57.652Z,37.10
2022-11-09T16:17:07.437Z,35.60
2022-11-09T16:21:16.734Z,42.70
2022-11-09T16:25:25.159Z,38.60
2022-11-09T16:29:33.741Z,39.80
2022-11-09T16:33:41.841Z,47.40
2022-11-09T16:37:51.667Z,52.60
2022-11-09T16:42:03.519Z,46.60
2022-11-09T16:46:11.181Z,45.70
2022-11-09T16:50:19.139Z,41.20
2022-11-09T16:54:26.746Z,38.40
2022-11-09T16:58:34.636Z,37.50
2022-11-09T17:02:42.436Z,38.90
2022-11-09T17:06:50.127Z,44.20
2022-11-09T17:10:57.829Z,43.60
2022-11-09T17:15:05.841Z,47.50
2022-11-09T17:19:14.903Z,49.50
2022-11-09T17:23:22.704Z,50.70
2022-11-09T17:27:30.202Z,44.50
2022-11-09T17:31:38.535Z,42.20
2022-11-09T17:35:47.302Z,39.20
2022-11-09T17:39:55.012Z,44.30
2022-11-09T17:44:04.758Z,40.10
2022-11-09T17:48:12.215Z,41.50
2022-11-09T17:52:19.518Z,44.50
2022-11-09T17:56:27.391Z,43.40
2022-11-09T18:00:34.860Z,42.50
2022-11-09T18:04:42.343Z,40.40
2022-11-09T18:09:10.755Z,44.30
2022-11-09T18:13:18.126Z,43.70
2022-11-09T18:17:25.727Z,44.00
2022-11-09T18:21:34.305Z,48.10
2022-11-09T18:25:41.962Z,40.90
2022-11-09T18:29:49.474Z,42.90
2022-11-09T18:33:57.295Z,43.40
2022-11-09T18:38:04.944Z,46.80
2022-11-09T18:42:12.802Z,44.20
2022-11-09T18:46:21.628Z,46.30
2022-11-09T18:50:29.427Z,46.30
2022-11-09T18:54:36.985Z,48.50
2022-11-09T18:58:44.766Z,44.60
2022-11-09T19:02:52.407Z,46.70
2022-11-09T19:07:00.888Z,50.40
2022-11-09T19:11:11.632Z,49.20
2022-11-09T19:15:20.489Z,52.70
2022-11-09T19:19:29.250Z,57.10
2022-11-09T19:23:36.824Z,60.80
2022-11-09T19:27:45.683Z,64.20
2022-11-09T19:31:52.974Z,81.00
2022-11-09T19:36:28.514Z,71.70
2022-11-09T19:40:29.497Z,66.90
2022-11-09T19:44:37.602Z,71.20
2022-11-09T19:48:48.419Z,63.60
2022-11-09T19:52:57.433Z,54.40
2022-11-09T19:57:05.430Z,53.40
2022-11-09T20:01:14.686Z,70.20
2022-11-09T20:05:23.054Z,73.70
2022-11-09T20:09:33.585Z,66.50
2022-11-09T20:13:43.939Z,53.50
2022-11-09T20:17:51.359Z,50.50
2022-11-09T20:21:58.845Z,81.60
2022-11-09T20:26:08.567Z,71.10
2022-11-09T20:30:16.975Z,63.10
2022-11-09T20:34:25.746Z,40.50
2022-11-09T20:38:33.500Z,42.60
2022-11-09T20:42:44.345Z,39.70
2022-11-09T20:46:52.828Z,42.40
2022-11-09T20:51:07.883Z,40.50
2022-11-09T20:55:15.447Z,42.20
2022-11-09T20:59:30.120Z,41.30
2022-11-09T21:03:40.051Z,37.40
2022-11-09T21:07:49.674Z,36.50
2022-11-09T21:12:17.001Z,32.30
2022-11-09T21:16:25.731Z,37.30
2022-11-09T21:20:33.882Z,36.10
2022-11-09T21:24:59.267Z,38.70
2022-11-09T21:29:33.145Z,37.10
2022-11-09T21:33:40.931Z,34.00
2022-11-09T21:37:49.386Z,36.00
2022-11-09T21:41:56.818Z,33.50
2022-11-09T21:46:05.252Z,32.40
2022-11-09T21:50:13.840Z,32.00
2022-11-09T21:54:21.981Z,32.50
2022-11-09T21:58:29.654Z,31.90
2022-11-09T22:02:37.145Z,35.20
2022-11-09T22:06:45.062Z,36.90
2022-11-09T22:10:52.954Z,36.90
2022-11-09T22:15:18.111Z,34.30
2022-11-09T22:19:43.470Z,32.80
2022-11-09T22:23:52.023Z,39.60
2022-11-09T22:28:00.722Z,35.50
2022-11-09T22:32:08.928Z,35.70
2022-11-09T22:36:18.646Z,34.60
2022-11-09T22:40:26.693Z,33.60
2022-11-09T22:44:34.902Z,34.60
2022-11-09T22:48:43.575Z,34.90
2022-11-09T22:52:54.018Z,36.40
2022-11-09T22:57:02.251Z,35.20
2022-11-09T23:01:13.038Z,36.40
2022-11-09T23:05:22.115Z,36.20
2022-11-09T23:09:29.615Z,37.70
2022-11-09T23:13:37.384Z,35.90
2022-11-09T23:18:02.776Z,38.50
2022-11-09T23:22:10.083Z,38.70
2022-11-09T23:26:18.540Z,38.80
2022-11-09T23:30:27.389Z,42.00
2022-11-09T23:34:35.102Z,38.70
2022-11-09T23:38:43.074Z,43.20
2022-11-09T23:42:50.873Z,44.10
2022-11-09T23:46:58.641Z,41.50
2022-11-09T23:51:07.358Z,38.80
2022-11-09T23:55:15.310Z,36.50
2022-11-09T23:59:23.185Z,39.50
